createdAt,value
2023-10-01T00:08:20.226Z,9.39
2023-10-01T00:18:27.068Z,9.39
2023-10-01T00:28:30.475Z,9.44
2023-10-01T00:38:34.257Z,9.40
2023-10-01T00:48:38.581Z,9.30
2023-10-01T00:58:41.826Z,9.15
2023-10-01T01:08:49.682Z,9.20
2023-10-01T01:18:52.974Z,9.30
2023-10-01T01:29:17.445Z,9.28
2023-10-01T01:39:28.247Z,9.16
2023-10-01T01:49:35.199Z,9.15
2023-10-01T01:59:44.485Z,9.40
2023-10-01T02:09:48.098Z,9.59
2023-10-01T02:19:52.316Z,9.59
2023-10-01T02:30:17.707Z,9.57
2023-10-01T02:40:21.111Z,9.58
2023-10-01T02:50:28.555Z,9.67
2023-10-01T03:00:32.539Z,9.72
2023-10-01T03:10:38.449Z,9.75
2023-10-01T03:20:59.479Z,9.67
2023-10-01T03:31:06.982Z,9.71
2023-10-01T03:41:21.158Z,9.83
2023-10-01T03:51:29.571Z,9.87
2023-10-01T04:01:34.047Z,9.95
2023-10-01T04:11:50.398Z,9.92
2023-10-01T04:21:54.462Z,9.97
2023-10-01T04:32:01.587Z,9.97
2023-10-01T04:42:04.524Z,10.06
2023-10-01T04:52:07.690Z,10.12
2023-10-01T05:02:11.688Z,10.04
2023-10-01T05:12:17.893Z,10.07
2023-10-01T05:22:20.930Z,10.17
2023-10-01T05:32:25.396Z,10.17
2023-10-01T05:42:29.264Z,10.36
2023-10-01T05:52:40.954Z,10.38
2023-10-01T06:02:47.704Z,10.50
2023-10-01T06:12:51.819Z,10.74
2023-10-01T06:22:55.321Z,11.06
2023-10-01T06:32:58.688Z,11.26
2023-10-01T06:43:02.886Z,11.58
2023-10-01T06:53:05.963Z,11.75
2023-10-01T07:03:17.664Z,11.95
2023-10-01T07:13:22.956Z,12.13
2023-10-01T07:23:30.172Z,12.30
2023-10-01T07:33:33.362Z,12.73
2023-10-01T07:43:36.481Z,13.09
2023-10-01T07:53:40.250Z,13.41
2023-10-01T08:03:48.027Z,13.65
2023-10-01T08:13:52.085Z,13.84
2023-10-01T08:23:55.235Z,14.03
2023-10-01T08:33:59.007Z,14.39
2023-10-01T08:44:11.243Z,14.86
2023-10-01T08:54:14.882Z,15.28
2023-10-01T09:04:29.926Z,15.49
2023-10-01T09:14:35.971Z,15.84
2023-10-01T09:24:40.236Z,16.33
2023-10-01T09:34:50.536Z,16.69
2023-10-01T09:44:53.090Z,16.93
2023-10-01T09:55:03.185Z,17.27
2023-10-01T10:05:25.195Z,17.82
2023-10-01T10:16:00.883Z,18.17
2023-10-01T10:26:12.981Z,18.27
2023-10-01T10:36:52.511Z,18.33
2023-10-01T10:47:07.712Z,18.19
2023-10-01T10:57:24.681Z,18.21
2023-10-01T11:07:28.057Z,18.34
2023-10-01T11:17:35.503Z,18.31
2023-10-01T11:27:44.415Z,18.34
2023-10-01T11:37:47.542Z,18.33
2023-10-01T11:47:57.106Z,18.23
2023-10-01T11:57:59.978Z,18.21
2023-10-01T12:08:04.065Z,18.10
2023-10-01T12:18:08.119Z,18.16
2023-10-01T12:28:15.779Z,18.33
2023-10-01T12:38:28.613Z,18.42
2023-10-01T12:48:32.246Z,18.29
2023-10-01T12:58:40.351Z,18.45
2023-10-01T13:08:48.597Z,18.55
2023-10-01T13:18:54.963Z,18.66
2023-10-01T13:29:01.122Z,18.43
2023-10-01T13:39:13.515Z,18.25
2023-10-01T13:49:34.810Z,18.11
2023-10-01T14:00:00.801Z,17.86
2023-10-01T14:10:04.208Z,17.59
2023-10-01T14:20:10.080Z,17.49
2023-10-01T14:30:33.554Z,17.49
2023-10-01T14:40:38.112Z,17.50
2023-10-01T14:50:41.912Z,17.45
2023-10-01T15:00:57.194Z,17.40
2023-10-01T15:10:59.918Z,17.41
2023-10-01T15:21:11.042Z,17.33
2023-10-01T15:31:14.417Z,17.16
2023-10-01T15:41:19.170Z,17.01
2023-10-01T15:51:26.312Z,16.81
2023-10-01T16:01:29.543Z,16.51
2023-10-01T16:11:34.431Z,16.17
2023-10-01T16:21:41.405Z,15.77
2023-10-01T16:31:44.458Z,15.39
2023-10-01T16:41:49.468Z,15.05
2023-10-01T16:51:55.876Z,14.70
2023-10-01T17:02:00.977Z,14.25
2023-10-01T17:12:04.820Z,13.95
2023-10-01T17:22:09.609Z,13.78
2023-10-01T17:32:13.991Z,13.67
2023-10-01T17:42:15.833Z,13.50
2023-10-01T17:52:27.764Z,13.41
2023-10-01T18:02:39.677Z,13.45
2023-10-01T18:12:44.341Z,13.50
2023-10-01T18:22:53.005Z,13.40
2023-10-01T18:32:58.850Z,13.22
2023-10-01T18:43:02.331Z,13.13
2023-10-01T18:53:04.915Z,13.06
2023-10-01T19:03:08.365Z,12.85
2023-10-01T19:13:14.010Z,12.62
2023-10-01T19:23:17.697Z,12.53
2023-10-01T19:33:21.238Z,12.65
2023-10-01T19:43:25.389Z,12.68
2023-10-01T19:53:31.428Z,12.58
2023-10-01T20:13:53.775Z,12.49
2023-10-01T20:23:57.594Z,12.63
2023-10-01T20:34:01.256Z,12.76
2023-10-01T20:44:07.541Z,12.75
2023-10-01T20:54:21.697Z,12.70
2023-10-01T21:04:25.337Z,12.73
2023-10-01T21:14:31.997Z,12.78
2023-10-01T21:24:35.029Z,12.75
2023-10-01T21:34:39.712Z,12.66
2023-10-01T21:44:46.852Z,12.55
2023-10-01T21:54:51.470Z,12.46
2023-10-01T22:04:56.562Z,12.39
2023-10-01T22:15:04.449Z,12.42
2023-10-01T22:25:12.607Z,12.61
2023-10-01T22:35:19.130Z,12.77
2023-10-01T22:45:29.248Z,12.98
2023-10-01T22:55:34.252Z,13.03
2023-10-01T23:05:43.660Z,13.01
2023-10-01T23:15:51.615Z,13.00
2023-10-01T23:26:13.273Z,13.07
2023-10-01T23:36:19.113Z,12.98
2023-10-01T23:46:26.332Z,12.82
2023-10-01T23:56:29.834Z,12.74
